createdAt,value
2022-10-04T00:00:28.783Z,74.55
2022-10-04T00:03:05.384Z,74.22
2022-10-04T00:05:32.978Z,73.98
2022-10-04T00:08:23.494Z,73.92
2022-10-04T00:11:05.418Z,75.29
2022-10-04T00:13:34.106Z,75.73
2022-10-04T00:16:01.864Z,75.30
2022-10-04T00:18:39.391Z,74.71
2022-10-04T00:21:08.702Z,74.22
2022-10-04T00:23:38.465Z,74.67
2022-10-04T00:26:12.995Z,74.09
2022-10-04T00:28:39.628Z,74.91
2022-10-04T00:31:25.470Z,74.33
2022-10-04T00:34:15.587Z,73.78
2022-10-04T00:36:52.981Z,73.84
2022-10-04T00:39:31.855Z,74.31
2022-10-04T00:42:16.682Z,74.35
2022-10-04T00:45:18.953Z,74.79
2022-10-04T00:47:48.756Z,74.75
2022-10-04T00:50:34.724Z,74.05
2022-10-04T00:53:12.327Z,75.91
2022-10-04T00:55:50.456Z,75.16
2022-10-04T00:58:30.051Z,75.23
2022-10-04T01:00:57.608Z,75.50
2022-10-04T01:03:31.154Z,75.45
2022-10-04T01:06:01.909Z,74.77
2022-10-04T01:08:36.265Z,75.12
2022-10-04T01:11:02.895Z,75.12
2022-10-04T01:13:55.579Z,76.04
2022-10-04T01:16:28.319Z,78.65
2022-10-04T01:18:55.449Z,79.59
2022-10-04T01:21:25.541Z,80.08
2022-10-04T01:23:58.151Z,79.96
2022-10-04T01:26:27.747Z,79.94
2022-10-04T01:28:57.088Z,79.31
2022-10-04T01:31:23.999Z,79.29
2022-10-04T01:33:50.730Z,79.29
2022-10-04T01:36:17.471Z,79.19
2022-10-04T01:38:44.195Z,77.95
2022-10-04T01:41:15.122Z,78.54
2022-10-04T01:43:45.845Z,77.67
2022-10-04T01:46:23.322Z,77.79
2022-10-04T01:48:51.968Z,77.80
2022-10-04T01:51:24.872Z,78.59
2022-10-04T01:54:05.000Z,78.30
2022-10-04T01:57:07.229Z,78.98
2022-10-04T02:00:00.237Z,78.88
2022-10-04T02:02:45.258Z,80.07
2022-10-04T02:05:15.869Z,79.96
2022-10-04T02:07:43.582Z,80.51
2022-10-04T02:10:17.116Z,80.47
2022-10-04T02:12:49.431Z,80.23
2022-10-04T02:15:18.346Z,80.49
2022-10-04T02:17:45.227Z,79.80
2022-10-04T02:20:26.552Z,79.18
2022-10-04T02:22:59.099Z,78.96
2022-10-04T02:25:26.026Z,78.27
2022-10-04T02:27:55.530Z,78.62
2022-10-04T02:30:22.992Z,78.96
2022-10-04T02:32:54.158Z,79.11
2022-10-04T02:35:21.452Z,79.19
2022-10-04T02:37:55.898Z,79.31
2022-10-04T02:40:29.068Z,79.19
2022-10-04T02:43:14.224Z,79.60
2022-10-04T02:46:03.484Z,79.93
2022-10-04T02:48:39.215Z,79.54
2022-10-04T02:51:23.269Z,80.13
2022-10-04T02:53:59.721Z,81.38
2022-10-04T02:56:29.840Z,82.06
2022-10-04T02:59:01.155Z,82.34
2022-10-04T03:01:42.529Z,82.32
2022-10-04T03:04:13.450Z,82.82
2022-10-04T03:06:40.316Z,82.38
2022-10-04T03:09:07.301Z,81.59
2022-10-04T03:11:37.706Z,81.00
2022-10-04T03:14:08.273Z,80.53
2022-10-04T03:16:38.617Z,80.72
2022-10-04T03:19:07.634Z,79.98
2022-10-04T03:21:37.161Z,80.15
2022-10-04T03:24:06.024Z,79.90
2022-10-04T03:26:38.709Z,79.96
2022-10-04T03:29:08.417Z,80.29
2022-10-04T03:31:37.818Z,79.83
2022-10-04T03:34:05.438Z,79.63
2022-10-04T03:36:34.557Z,79.52
2022-10-04T03:39:09.767Z,80.02
2022-10-04T03:41:42.557Z,79.90
2022-10-04T03:44:17.666Z,79.94
2022-10-04T03:46:45.757Z,79.82
2022-10-04T03:49:18.313Z,81.21
2022-10-04T03:51:48.955Z,80.79
2022-10-04T03:54:24.012Z,81.16
2022-10-04T03:56:52.210Z,80.72
2022-10-04T03:59:19.510Z,80.33
2022-10-04T04:02:03.873Z,80.32
2022-10-04T04:04:44.705Z,80.61
2022-10-04T04:07:30.059Z,80.20
2022-10-04T04:10:04.285Z,80.70
2022-10-04T04:12:44.017Z,80.56
2022-10-04T04:15:13.741Z,80.14
2022-10-04T04:17:51.574Z,79.70
2022-10-04T04:20:35.413Z,79.99
2022-10-04T04:23:25.493Z,80.15
2022-10-04T04:25:56.718Z,80.21
2022-10-04T04:28:27.688Z,80.07
2022-10-04T04:31:06.937Z,80.39
2022-10-04T04:33:44.210Z,80.39
2022-10-04T04:36:16.219Z,80.42
2022-10-04T04:38:43.271Z,80.75
2022-10-04T04:41:11.373Z,81.10
2022-10-04T04:43:43.940Z,81.18
2022-10-04T04:46:26.791Z,80.97
2022-10-04T04:49:02.554Z,80.65
2022-10-04T04:51:32.896Z,80.47
2022-10-04T04:54:04.007Z,80.79
2022-10-04T04:56:31.077Z,80.53
2022-10-04T04:59:02.217Z,80.69
2022-10-04T05:01:34.038Z,80.62
2022-10-04T05:04:18.839Z,80.87
2022-10-04T05:07:03.340Z,80.92
2022-10-04T05:09:36.077Z,81.00
2022-10-04T05:12:10.533Z,81.51
2022-10-04T05:14:39.594Z,82.07
2022-10-04T05:17:06.640Z,82.62
2022-10-04T05:19:39.685Z,82.25
2022-10-04T05:22:13.234Z,82.55
2022-10-04T05:24:43.263Z,81.50
2022-10-04T05:27:37.156Z,80.84
2022-10-04T05:30:06.864Z,79.84
2022-10-04T05:32:33.453Z,80.36
2022-10-04T05:35:01.517Z,80.16
2022-10-04T05:37:46.442Z,80.86
2022-10-04T05:40:13.082Z,82.00
2022-10-04T05:42:43.825Z,82.91
2022-10-04T05:45:18.163Z,83.02
2022-10-04T05:47:56.133Z,82.31
2022-10-04T05:50:35.500Z,82.58
2022-10-04T05:53:24.868Z,81.80
2022-10-04T05:55:54.569Z,83.75
2022-10-04T05:58:39.962Z,82.09
2022-10-04T06:01:28.485Z,81.37
2022-10-04T06:04:36.922Z,80.99
2022-10-04T06:07:22.855Z,80.67
2022-10-04T06:10:27.639Z,80.56
2022-10-04T06:13:00.332Z,79.57
2022-10-04T06:15:46.445Z,81.68
2022-10-04T06:18:34.996Z,82.44
2022-10-04T06:21:20.474Z,82.92
2022-10-04T06:24:13.508Z,82.59
2022-10-04T06:26:48.062Z,82.64
2022-10-04T06:29:21.337Z,82.60
2022-10-04T06:32:34.235Z,82.53
2022-10-04T06:35:33.402Z,82.11
2022-10-04T06:38:03.055Z,83.01
2022-10-04T06:40:46.429Z,82.62
2022-10-04T06:43:13.060Z,82.16
2022-10-04T06:45:54.862Z,81.92
2022-10-04T06:48:59.283Z,81.96
2022-10-04T06:52:03.816Z,82.30
2022-10-04T06:54:51.920Z,81.55
2022-10-04T06:58:02.660Z,82.52
2022-10-04T07:00:35.784Z,81.93
2022-10-04T07:03:11.279Z,81.56
2022-10-04T07:05:47.256Z,81.37
2022-10-04T07:08:33.256Z,81.68
2022-10-04T07:11:18.515Z,81.09
2022-10-04T07:14:00.433Z,81.23
2022-10-04T07:16:33.073Z,82.08
2022-10-04T07:19:34.628Z,81.65
2022-10-04T07:22:08.913Z,81.83
2022-10-04T07:24:51.122Z,82.13
2022-10-04T07:27:26.675Z,82.12
2022-10-04T07:29:56.313Z,82.33
2022-10-04T07:32:36.578Z,82.29
2022-10-04T07:35:09.544Z,83.46
2022-10-04T07:37:49.582Z,83.85
2022-10-04T07:40:26.132Z,83.25
2022-10-04T07:42:58.652Z,82.42
2022-10-04T07:45:41.535Z,83.43
2022-10-04T07:48:22.100Z,83.13
2022-10-04T07:50:55.118Z,83.39
2022-10-04T07:53:25.238Z,82.91
2022-10-04T07:56:02.686Z,82.97
2022-10-04T07:58:50.793Z,82.94
2022-10-04T08:01:52.575Z,83.94
2022-10-04T08:04:36.495Z,83.86
2022-10-04T08:07:19.629Z,84.87
2022-10-04T08:10:26.389Z,85.44
2022-10-04T08:13:16.111Z,84.46
2022-10-04T08:15:44.018Z,83.87
2022-10-04T08:18:55.643Z,85.14
2022-10-04T08:21:29.804Z,84.54
2022-10-04T08:23:59.546Z,85.77
2022-10-04T08:26:26.092Z,84.82
2022-10-04T08:28:59.456Z,85.02
2022-10-04T08:31:32.152Z,84.51
2022-10-04T08:34:29.191Z,83.11
2022-10-04T08:37:13.387Z,82.89
2022-10-04T08:40:34.388Z,82.00
2022-10-04T08:43:44.600Z,83.71
2022-10-04T08:46:38.817Z,82.04
2022-10-04T08:49:31.541Z,82.59
2022-10-04T08:52:07.213Z,83.31
2022-10-04T08:54:34.023Z,81.90
2022-10-04T08:57:19.130Z,82.01
2022-10-04T09:00:18.971Z,81.66
2022-10-04T09:03:02.924Z,81.52
2022-10-04T09:05:42.149Z,82.17
2022-10-04T09:08:21.148Z,81.06
2022-10-04T09:11:29.506Z,79.63
2022-10-04T09:14:17.399Z,80.44
2022-10-04T09:16:47.106Z,79.57
2022-10-04T09:19:23.142Z,79.10
2022-10-04T09:22:08.532Z,77.37
2022-10-04T09:24:35.106Z,77.11
2022-10-04T09:27:31.501Z,76.30
2022-10-04T09:30:18.580Z,77.00
2022-10-04T09:33:01.556Z,76.08
2022-10-04T09:35:34.253Z,72.96
2022-10-04T09:38:24.293Z,72.98
2022-10-04T09:41:09.400Z,72.19
2022-10-04T09:44:03.771Z,72.20
2022-10-04T09:47:09.174Z,71.75
2022-10-04T09:49:45.129Z,71.79
2022-10-04T09:52:36.851Z,71.44
2022-10-04T09:55:36.639Z,71.51
2022-10-04T09:58:22.235Z,69.56
2022-10-04T10:01:01.576Z,67.28
2022-10-04T10:03:43.961Z,67.38
2022-10-04T10:06:36.207Z,65.18
2022-10-04T10:09:21.806Z,64.13
2022-10-04T10:12:45.310Z,61.71
2022-10-04T10:15:25.046Z,62.35
2022-10-04T10:18:03.745Z,61.69
2022-10-04T10:20:49.366Z,63.16
2022-10-04T10:23:48.237Z,62.57
2022-10-04T10:26:26.949Z,62.36
2022-10-04T10:29:15.523Z,61.02
2022-10-04T10:31:51.264Z,61.02
2022-10-04T10:34:52.119Z,59.39
2022-10-04T10:37:47.593Z,59.15
2022-10-04T10:40:37.327Z,60.87
2022-10-04T10:43:07.143Z,58.23
2022-10-04T10:46:06.803Z,58.67
2022-10-04T10:49:04.866Z,58.92
2022-10-04T10:52:09.244Z,58.67
2022-10-04T10:54:38.989Z,58.96
2022-10-04T10:57:38.178Z,57.94
2022-10-04T11:00:40.117Z,57.22
2022-10-04T11:03:34.847Z,57.67
2022-10-04T11:06:19.052Z,56.05
2022-10-04T11:08:51.783Z,57.54
2022-10-04T11:11:43.524Z,56.29
2022-10-04T11:14:34.546Z,57.09
2022-10-04T11:17:23.334Z,59.07
2022-10-04T11:20:27.165Z,56.29
2022-10-04T11:23:02.969Z,58.11
2022-10-04T11:26:07.357Z,59.03
2022-10-04T11:28:42.813Z,58.59
2022-10-04T11:31:47.553Z,58.80
2022-10-04T11:34:35.799Z,57.84
2022-10-04T11:37:11.807Z,58.14
2022-10-04T11:39:41.461Z,58.36
2022-10-04T11:42:30.049Z,56.48
2022-10-04T11:45:34.335Z,56.55
2022-10-04T11:48:10.312Z,56.26
2022-10-04T11:50:54.104Z,56.05
2022-10-04T11:53:45.794Z,55.09
2022-10-04T11:56:39.594Z,55.03
2022-10-04T11:59:24.756Z,54.42
2022-10-04T12:02:23.243Z,56.47
2022-10-04T12:05:24.797Z,58.82
2022-10-04T12:08:13.014Z,58.10
2022-10-04T12:10:43.017Z,57.00
2022-10-04T12:13:34.802Z,56.34
2022-10-04T12:16:23.392Z,58.29
2022-10-04T12:19:10.096Z,58.67
2022-10-04T12:21:41.399Z,56.86
2022-10-04T12:24:32.578Z,57.63
2022-10-04T12:27:19.207Z,58.03
2022-10-04T12:30:07.421Z,59.16
2022-10-04T12:32:58.222Z,57.60
2022-10-04T12:35:44.319Z,56.94
2022-10-04T12:38:49.797Z,57.14
2022-10-04T12:41:34.238Z,57.55
2022-10-04T12:44:31.284Z,57.75
2022-10-04T12:47:22.918Z,56.13
2022-10-04T12:50:26.890Z,57.59
2022-10-04T12:52:59.492Z,58.52
2022-10-04T12:56:00.389Z,55.40
2022-10-04T12:58:39.265Z,55.30
2022-10-04T13:01:16.533Z,55.55
2022-10-04T13:04:12.832Z,55.37
2022-10-04T13:06:54.840Z,56.33
2022-10-04T13:10:23.191Z,56.02
2022-10-04T13:13:23.274Z,56.51
2022-10-04T13:19:10.451Z,53.46
2022-10-04T13:22:03.310Z,54.49
2022-10-04T13:24:42.319Z,55.60
2022-10-04T13:27:17.032Z,55.81
2022-10-04T13:29:54.279Z,56.36
2022-10-04T13:32:27.993Z,54.38
2022-10-04T13:35:26.080Z,55.37
2022-10-04T13:38:17.678Z,56.10
2022-10-04T13:40:52.419Z,53.78
2022-10-04T13:43:22.080Z,56.87
2022-10-04T13:46:00.926Z,56.24
2022-10-04T13:48:39.546Z,55.55
2022-10-04T13:51:39.354Z,55.40
2022-10-04T13:54:31.326Z,56.03
2022-10-04T13:57:00.837Z,55.45
2022-10-04T13:59:46.570Z,56.48
2022-10-04T14:02:19.541Z,57.27
2022-10-04T14:05:14.215Z,56.69
2022-10-04T14:08:02.924Z,56.48
2022-10-04T14:10:37.236Z,54.38
2022-10-04T14:13:31.674Z,53.52
2022-10-04T14:16:16.592Z,55.70
2022-10-04T14:19:12.647Z,54.82
2022-10-04T14:22:00.476Z,55.62
2022-10-04T14:24:49.121Z,56.33
2022-10-04T14:27:43.593Z,55.85
2022-10-04T14:30:28.890Z,57.69
2022-10-04T14:33:23.096Z,57.90
2022-10-04T14:35:52.493Z,56.01
2022-10-04T14:38:54.722Z,55.87
2022-10-04T14:41:57.654Z,55.19
2022-10-04T14:44:48.689Z,54.86
2022-10-04T14:47:34.222Z,56.92
2022-10-04T14:50:22.774Z,57.30
2022-10-04T14:53:15.663Z,56.41
2022-10-04T14:55:55.490Z,55.91
2022-10-04T14:58:39.730Z,56.85
2022-10-04T15:01:35.790Z,56.90
2022-10-04T15:04:14.647Z,55.23
2022-10-04T15:06:49.313Z,55.79
2022-10-04T15:09:25.311Z,55.16
2022-10-04T15:12:40.608Z,57.52
2022-10-04T15:15:11.204Z,57.43
2022-10-04T15:17:54.376Z,57.06
2022-10-04T15:20:47.343Z,56.50
2022-10-04T15:23:17.232Z,57.57
2022-10-04T15:25:49.619Z,57.77
2022-10-04T15:28:40.977Z,56.37
2022-10-04T15:31:34.930Z,58.52
2022-10-04T15:34:38.492Z,57.67
2022-10-04T15:37:39.378Z,57.78
2022-10-04T15:40:25.399Z,57.92
2022-10-04T15:43:17.024Z,58.00
2022-10-04T15:46:18.915Z,57.81
2022-10-04T15:48:54.456Z,57.78
2022-10-04T15:51:39.499Z,58.00
2022-10-04T15:54:35.418Z,59.13
2022-10-04T15:57:20.411Z,57.60
2022-10-04T15:59:54.866Z,58.63
2022-10-04T16:02:46.598Z,59.51
2022-10-04T16:05:29.418Z,59.75
2022-10-04T16:08:11.482Z,58.38
2022-10-04T16:10:55.788Z,60.45
2022-10-04T16:13:38.033Z,59.28
2022-10-04T16:16:17.115Z,59.82
2022-10-04T16:19:05.296Z,58.97
2022-10-04T16:21:48.137Z,59.35
2022-10-04T16:24:17.936Z,59.77
2022-10-04T16:26:44.804Z,60.01
2022-10-04T16:29:24.726Z,59.59
2022-10-04T16:32:01.304Z,60.11
2022-10-04T16:34:44.747Z,60.11
2022-10-04T16:37:23.689Z,59.24
2022-10-04T16:40:12.093Z,59.49
2022-10-04T16:42:45.027Z,59.02
2022-10-04T16:45:11.662Z,59.42
2022-10-04T16:47:47.808Z,59.92
2022-10-04T16:50:54.699Z,59.58
2022-10-04T16:53:27.605Z,64.11
2022-10-04T16:55:56.399Z,60.63
2022-10-04T16:58:26.058Z,61.07
2022-10-04T17:01:20.884Z,61.05
2022-10-04T17:03:56.457Z,63.63
2022-10-04T17:06:49.899Z,63.97
2022-10-04T17:09:28.794Z,63.21
2022-10-04T17:12:20.381Z,63.11
2022-10-04T17:14:55.242Z,64.37
2022-10-04T17:17:27.319Z,66.08
2022-10-04T17:20:12.485Z,65.29
2022-10-04T17:23:07.295Z,64.35
2022-10-04T17:25:53.239Z,64.88
2022-10-04T17:28:34.390Z,63.25
2022-10-04T17:31:12.168Z,63.08
2022-10-04T17:34:00.308Z,63.66
2022-10-04T17:36:50.090Z,62.72
2022-10-04T17:39:35.435Z,62.80
2022-10-04T17:42:14.366Z,63.46
2022-10-04T17:45:01.725Z,64.45
2022-10-04T17:47:41.483Z,64.14
2022-10-04T17:50:20.880Z,65.63
2022-10-04T17:52:55.285Z,64.83
2022-10-04T17:55:36.277Z,66.09
2022-10-04T17:58:21.237Z,65.71
2022-10-04T18:00:55.749Z,65.13
2022-10-04T18:03:34.424Z,65.43
2022-10-04T18:06:14.290Z,62.33
2022-10-04T18:09:10.369Z,62.00
2022-10-04T18:11:50.034Z,60.68
2022-10-04T18:14:40.142Z,60.42
2022-10-04T18:17:13.183Z,60.29
2022-10-04T18:19:49.052Z,60.44
2022-10-04T18:22:21.585Z,60.94
2022-10-04T18:25:21.452Z,61.65
2022-10-04T18:28:01.164Z,62.42
2022-10-04T18:30:28.004Z,62.19
2022-10-04T18:32:55.916Z,62.39
2022-10-04T18:35:29.114Z,61.97
2022-10-04T18:38:28.175Z,62.44
2022-10-04T18:40:56.297Z,62.40
2022-10-04T18:43:30.098Z,62.78
2022-10-04T18:46:37.256Z,63.57
2022-10-04T18:49:16.953Z,64.12
2022-10-04T18:52:02.539Z,64.10
2022-10-04T18:54:42.254Z,64.59
2022-10-04T18:57:38.257Z,65.15
2022-10-04T19:00:11.710Z,65.78
2022-10-04T19:02:55.922Z,66.41
2022-10-04T19:05:32.758Z,65.96
2022-10-04T19:08:08.626Z,65.76
2022-10-04T19:10:51.046Z,65.97
2022-10-04T19:13:39.241Z,65.47
2022-10-04T19:16:31.310Z,65.71
2022-10-04T19:19:14.838Z,66.81
2022-10-04T19:21:57.841Z,65.57
2022-10-04T19:24:24.967Z,66.32
2022-10-04T19:27:30.544Z,66.76
2022-10-04T19:30:18.726Z,65.98
2022-10-04T19:32:45.371Z,65.57
2022-10-04T19:35:14.996Z,65.20
2022-10-04T19:37:57.731Z,65.09
2022-10-04T19:40:27.361Z,65.77
2022-10-04T19:43:07.131Z,65.98
2022-10-04T19:45:46.112Z,65.82
2022-10-04T19:48:26.125Z,65.35
2022-10-04T19:51:04.608Z,65.80
2022-10-04T19:53:41.961Z,66.44
2022-10-04T19:56:19.894Z,66.26
2022-10-04T19:59:22.123Z,67.20
2022-10-04T20:01:48.855Z,67.15
2022-10-04T20:04:17.459Z,67.23
2022-10-04T20:06:56.705Z,67.44
2022-10-04T20:09:31.856Z,67.28
2022-10-04T20:11:59.322Z,67.14
2022-10-04T20:14:25.876Z,66.87
2022-10-04T20:16:52.579Z,66.50
2022-10-04T20:19:28.643Z,66.45
2022-10-04T20:21:57.046Z,66.07
2022-10-04T20:24:35.845Z,65.79
2022-10-04T20:27:24.708Z,65.38
2022-10-04T20:29:51.353Z,65.79
2022-10-04T20:32:27.263Z,65.86
2022-10-04T20:34:55.893Z,65.75
2022-10-04T20:37:45.018Z,65.47
2022-10-04T20:40:40.333Z,65.17
2022-10-04T20:43:16.053Z,65.25
2022-10-04T20:45:45.497Z,65.01
2022-10-04T20:48:32.645Z,65.42
2022-10-04T20:51:08.554Z,65.35
2022-10-04T20:53:35.422Z,65.41
2022-10-04T20:56:14.541Z,65.38
2022-10-04T20:58:41.365Z,65.33
2022-10-04T21:01:28.291Z,65.25
2022-10-04T21:04:14.540Z,65.68
2022-10-04T21:06:55.701Z,65.33
2022-10-04T21:09:23.056Z,65.48
2022-10-04T21:11:55.849Z,65.53
2022-10-04T21:14:37.610Z,65.77
2022-10-04T21:17:30.024Z,65.61
2022-10-04T21:19:57.120Z,66.51
2022-10-04T21:22:30.210Z,66.13
2022-10-04T21:24:59.999Z,66.51
2022-10-04T21:27:37.913Z,66.94
2022-10-04T21:30:19.150Z,66.85
2022-10-04T21:32:46.009Z,67.18
2022-10-04T21:35:13.426Z,67.28
2022-10-04T21:37:40.451Z,67.15
2022-10-04T21:40:08.288Z,66.95
2022-10-04T21:42:34.966Z,67.57
2022-10-04T21:45:01.699Z,67.69
2022-10-04T21:47:29.914Z,67.87
2022-10-04T21:49:56.523Z,67.75
2022-10-04T21:52:23.212Z,68.09
2022-10-04T21:54:49.789Z,68.42
2022-10-04T21:57:16.443Z,68.31
2022-10-04T21:59:43.266Z,68.36
2022-10-04T22:02:09.956Z,68.90
2022-10-04T22:04:36.605Z,69.19
2022-10-04T22:07:03.773Z,69.58
2022-10-04T22:09:30.328Z,70.12
2022-10-04T22:11:57.141Z,70.30
2022-10-04T22:14:23.765Z,72.73
2022-10-04T22:16:51.100Z,73.16
2022-10-04T22:19:17.926Z,72.19
2022-10-04T22:21:44.880Z,72.11
2022-10-04T22:24:19.609Z,73.86
2022-10-04T22:26:47.375Z,73.34
2022-10-04T22:29:16.324Z,72.74
2022-10-04T22:31:49.189Z,72.20
2022-10-04T22:34:18.184Z,71.48
2022-10-04T22:36:44.995Z,74.50
2022-10-04T22:39:17.960Z,73.94
2022-10-04T22:41:56.139Z,72.67
2022-10-04T22:44:44.527Z,72.13
2022-10-04T22:47:13.732Z,70.89
2022-10-04T22:49:43.660Z,70.96
2022-10-04T22:52:18.882Z,70.25
2022-10-04T22:54:48.683Z,70.62
2022-10-04T22:57:17.080Z,70.13
2022-10-04T22:59:47.664Z,71.25
2022-10-04T23:02:17.204Z,71.02
2022-10-04T23:04:50.452Z,70.82
2022-10-04T23:07:17.942Z,70.46
2022-10-04T23:09:44.528Z,70.55
2022-10-04T23:12:11.677Z,70.29
2022-10-04T23:14:39.943Z,70.47
2022-10-04T23:17:22.162Z,70.96
2022-10-04T23:19:51.893Z,71.15
2022-10-04T23:22:25.900Z,71.28
2022-10-04T23:24:52.569Z,70.98
2022-10-04T23:27:19.868Z,71.35
2022-10-04T23:29:47.356Z,71.86
2022-10-04T23:32:18.573Z,72.55
2022-10-04T23:34:54.289Z,72.68
2022-10-04T23:37:26.193Z,72.54
2022-10-04T23:39:53.274Z,72.38
2022-10-04T23:42:22.987Z,73.78
2022-10-04T23:44:51.417Z,73.62
2022-10-04T23:47:19.625Z,72.96
2022-10-04T23:49:49.377Z,73.10
2022-10-04T23:52:22.487Z,72.90
2022-10-04T23:54:50.650Z,73.66
2022-10-04T23:57:26.036Z,73.17
2022-10-04T23:59:52.789Z,72.81
